createdAt,value
2022-12-26T00:02:24.153Z,10.05
2022-12-26T00:07:28.452Z,10.01
2022-12-26T00:12:32.037Z,9.91
2022-12-26T00:17:37.006Z,9.90
2022-12-26T00:22:40.569Z,9.84
2022-12-26T00:27:44.168Z,9.80
2022-12-26T00:32:49.139Z,9.88
2022-12-26T00:37:52.658Z,9.91
2022-12-26T00:42:56.130Z,9.89
2022-12-26T00:48:01.222Z,9.94
2022-12-26T00:53:04.814Z,9.95
2022-12-26T00:58:08.489Z,9.92
2022-12-26T01:03:14.309Z,9.97
2022-12-26T01:08:19.887Z,9.88
2022-12-26T01:13:27.335Z,9.79
2022-12-26T01:18:32.714Z,9.90
2022-12-26T01:23:36.328Z,9.82
2022-12-26T01:28:39.909Z,9.91
2022-12-26T01:33:44.881Z,9.83
2022-12-26T01:38:48.491Z,9.79
2022-12-26T01:43:58.268Z,9.74
2022-12-26T01:49:10.308Z,9.74
2022-12-26T01:54:37.913Z,9.79
2022-12-26T01:59:40.948Z,9.82
2022-12-26T02:05:07.555Z,9.83
2022-12-26T02:10:17.487Z,9.58
2022-12-26T02:15:21.134Z,9.63
2022-12-26T02:20:28.850Z,9.84
2022-12-26T02:26:01.266Z,9.82
2022-12-26T02:31:14.591Z,9.91
2022-12-26T02:36:46.869Z,9.91
2022-12-26T02:42:01.837Z,10.00
2022-12-26T02:47:13.522Z,10.06
2022-12-26T02:52:40.376Z,9.93
2022-12-26T02:58:17.322Z,10.09
2022-12-26T03:03:46.335Z,10.00
2022-12-26T03:09:11.526Z,10.11
2022-12-26T03:14:20.330Z,9.99
2022-12-26T03:19:29.118Z,9.94
2022-12-26T03:24:52.767Z,10.04
2022-12-26T03:30:13.542Z,10.06
2022-12-26T03:35:18.618Z,9.95
2022-12-26T03:41:03.237Z,10.00
2022-12-26T03:46:36.306Z,10.04
2022-12-26T03:52:03.651Z,10.18
2022-12-26T03:57:29.700Z,10.25
2022-12-26T04:02:52.416Z,10.19
2022-12-26T04:08:19.963Z,10.28
2022-12-26T04:13:45.936Z,10.22
2022-12-26T04:19:28.653Z,10.13
2022-12-26T04:24:55.673Z,10.08
2022-12-26T04:30:16.706Z,10.12
2022-12-26T04:35:42.120Z,10.32
2022-12-26T04:41:10.326Z,10.29
2022-12-26T04:46:15.201Z,10.26
2022-12-26T04:51:18.880Z,10.25
2022-12-26T04:56:24.035Z,10.34
2022-12-26T05:01:45.284Z,10.25
2022-12-26T05:07:06.727Z,10.40
2022-12-26T05:12:11.843Z,10.44
2022-12-26T05:17:33.852Z,10.27
2022-12-26T05:22:57.841Z,10.26
2022-12-26T05:28:20.527Z,10.05
2022-12-26T05:33:41.637Z,10.03
2022-12-26T05:38:45.534Z,10.21
2022-12-26T05:43:50.510Z,10.22
2022-12-26T05:48:54.790Z,10.16
2022-12-26T05:53:58.786Z,10.15
2022-12-26T05:59:03.844Z,10.20
2022-12-26T06:04:07.372Z,10.17
2022-12-26T06:09:11.058Z,10.04
2022-12-26T06:14:16.584Z,10.06
2022-12-26T06:19:20.294Z,9.87
2022-12-26T06:24:23.995Z,9.94
2022-12-26T06:29:29.092Z,9.95
2022-12-26T06:34:32.805Z,10.04
2022-12-26T06:39:36.486Z,10.07
2022-12-26T06:44:41.415Z,9.99
2022-12-26T06:49:45.009Z,10.12
2022-12-26T06:54:48.638Z,9.98
2022-12-26T06:59:53.674Z,10.16
2022-12-26T07:04:57.406Z,10.26
2022-12-26T07:10:01.124Z,10.27
2022-12-26T07:15:10.114Z,10.37
2022-12-26T07:20:14.336Z,10.39
2022-12-26T07:25:18.069Z,10.34
2022-12-26T07:30:23.485Z,10.46
2022-12-26T07:35:28.922Z,10.48
2022-12-26T07:40:32.610Z,10.48
2022-12-26T07:45:43.382Z,10.64
2022-12-26T07:50:49.781Z,10.49
2022-12-26T07:55:53.479Z,10.57
2022-12-26T08:01:01.995Z,10.68
2022-12-26T08:06:05.759Z,10.75
2022-12-26T08:11:10.490Z,10.76
2022-12-26T08:16:15.912Z,10.77
2022-12-26T08:21:19.890Z,10.70
2022-12-26T08:26:23.600Z,10.68
2022-12-26T08:31:28.854Z,10.64
2022-12-26T08:36:32.480Z,10.69
2022-12-26T08:41:36.954Z,10.69
2022-12-26T08:46:42.109Z,10.74
2022-12-26T08:51:45.838Z,10.72
2022-12-26T08:56:49.370Z,10.67
2022-12-26T09:01:54.530Z,10.59
2022-12-26T09:06:58.109Z,10.49
2022-12-26T09:12:02.080Z,10.42
2022-12-26T09:17:07.342Z,10.50
2022-12-26T09:22:33.526Z,10.59
2022-12-26T09:27:38.967Z,10.35
2022-12-26T09:32:43.873Z,10.44
2022-12-26T09:37:47.974Z,10.49
2022-12-26T09:43:01.588Z,10.32
2022-12-26T09:48:14.541Z,10.56
2022-12-26T09:53:25.467Z,10.53
2022-12-26T09:58:31.491Z,10.70
2022-12-26T10:03:41.406Z,10.52
2022-12-26T10:08:57.752Z,10.55
2022-12-26T10:14:09.747Z,10.38
2022-12-26T10:19:33.067Z,10.31
2022-12-26T10:24:40.502Z,10.33
2022-12-26T10:29:49.167Z,10.17
2022-12-26T10:34:55.323Z,10.24
2022-12-26T10:40:07.390Z,10.37
2022-12-26T10:45:17.248Z,10.11
2022-12-26T10:50:27.867Z,9.98
2022-12-26T10:55:34.464Z,10.15
2022-12-26T11:00:38.482Z,9.95
2022-12-26T11:06:07.067Z,10.11
2022-12-26T11:11:14.310Z,10.15
2022-12-26T11:16:26.770Z,10.36
2022-12-26T11:21:33.605Z,10.78
2022-12-26T11:26:38.839Z,10.81
2022-12-26T11:31:52.090Z,10.82
2022-12-26T11:36:57.128Z,10.43
2022-12-26T11:42:01.332Z,10.68
2022-12-26T11:47:11.743Z,10.58
2022-12-26T11:52:37.947Z,10.49
2022-12-26T11:57:41.590Z,10.66
2022-12-26T12:02:45.471Z,10.38
2022-12-26T12:08:07.959Z,10.51
2022-12-26T12:13:21.026Z,10.41
2022-12-26T12:18:40.343Z,10.64
2022-12-26T12:24:02.845Z,10.56
2022-12-26T12:29:30.341Z,10.53
2022-12-26T12:34:53.125Z,10.55
2022-12-26T12:40:04.160Z,10.48
2022-12-26T12:45:30.921Z,10.76
2022-12-26T12:50:40.904Z,10.60
2022-12-26T12:56:00.496Z,10.72
2022-12-26T13:01:11.237Z,10.66
2022-12-26T13:06:20.019Z,10.57
2022-12-26T13:11:29.381Z,10.57
2022-12-26T13:16:43.542Z,10.69
2022-12-26T13:21:49.785Z,10.72
2022-12-26T13:27:03.258Z,10.70
2022-12-26T13:32:18.581Z,10.71
2022-12-26T13:37:57.954Z,10.56
2022-12-26T13:43:27.014Z,10.68
2022-12-26T13:49:07.692Z,10.59
2022-12-26T13:54:14.243Z,10.68
2022-12-26T13:59:26.987Z,10.48
2022-12-26T14:04:49.240Z,10.48
2022-12-26T14:10:06.224Z,10.45
2022-12-26T14:15:23.151Z,10.38
2022-12-26T14:20:41.737Z,10.21
2022-12-26T14:25:54.191Z,10.12
2022-12-26T14:31:16.006Z,9.98
2022-12-26T14:36:33.967Z,9.94
2022-12-26T14:42:28.381Z,9.72
2022-12-26T14:47:41.139Z,9.86
2022-12-26T14:52:45.759Z,9.75
2022-12-26T14:57:50.061Z,9.61
2022-12-26T15:03:28.015Z,9.69
2022-12-26T15:08:51.701Z,9.70
2022-12-26T15:14:29.052Z,9.71
2022-12-26T15:20:08.617Z,9.72
2022-12-26T15:25:37.765Z,9.71
2022-12-26T15:30:57.102Z,9.75
2022-12-26T15:36:08.345Z,9.69
2022-12-26T15:41:15.804Z,9.43
2022-12-26T15:46:23.983Z,9.39
2022-12-26T15:51:41.252Z,9.38
2022-12-26T15:56:56.004Z,9.39
2022-12-26T16:02:00.821Z,9.32
2022-12-26T16:07:17.219Z,9.18
2022-12-26T16:12:26.916Z,9.31
2022-12-26T16:17:31.097Z,9.33
2022-12-26T16:22:47.282Z,9.21
2022-12-26T16:27:55.083Z,9.18
2022-12-26T16:33:01.261Z,9.13
2022-12-26T16:38:13.057Z,8.88
2022-12-26T16:43:29.622Z,8.62
2022-12-26T16:48:35.876Z,8.44
2022-12-26T16:53:46.779Z,8.38
2022-12-26T16:58:57.804Z,8.28
2022-12-26T17:04:09.234Z,8.35
2022-12-26T17:09:17.443Z,8.31
2022-12-26T17:14:23.916Z,8.16
2022-12-26T17:19:31.838Z,8.30
2022-12-26T17:24:37.500Z,8.16
2022-12-26T17:29:53.720Z,8.04
2022-12-26T17:35:02.051Z,7.96
2022-12-26T17:40:24.216Z,7.99
2022-12-26T17:45:29.044Z,7.95
2022-12-26T17:50:35.504Z,7.99
2022-12-26T17:55:40.923Z,7.90
2022-12-26T18:00:45.503Z,8.06
2022-12-26T18:05:49.850Z,7.98
2022-12-26T18:10:54.786Z,7.76
2022-12-26T18:15:59.247Z,7.80
2022-12-26T18:21:03.386Z,7.71
2022-12-26T18:26:13.775Z,7.64
2022-12-26T18:31:18.286Z,7.38
2022-12-26T18:36:24.241Z,7.38
2022-12-26T18:41:29.429Z,7.35
2022-12-26T18:46:33.210Z,7.47
2022-12-26T18:51:39.496Z,7.43
2022-12-26T18:56:44.755Z,7.12
2022-12-26T19:01:48.780Z,7.22
2022-12-26T19:06:53.447Z,7.13
2022-12-26T19:11:58.935Z,6.71
2022-12-26T19:17:02.457Z,7.02
2022-12-26T19:22:06.306Z,7.07
2022-12-26T19:27:11.691Z,6.85
2022-12-26T19:32:15.593Z,6.75
2022-12-26T19:37:19.454Z,6.69
2022-12-26T19:42:25.313Z,6.48
2022-12-26T19:47:29.386Z,6.77
2022-12-26T19:52:34.456Z,6.36
2022-12-26T19:57:39.749Z,6.27
2022-12-26T20:02:43.781Z,6.47
2022-12-26T20:07:47.608Z,6.73
2022-12-26T20:12:52.734Z,6.55
2022-12-26T20:17:57.071Z,6.65
2022-12-26T20:23:01.013Z,6.45
2022-12-26T20:28:06.913Z,6.46
2022-12-26T20:33:11.466Z,6.18
2022-12-26T20:38:15.483Z,6.16
2022-12-26T20:43:21.200Z,6.00
2022-12-26T20:48:25.881Z,5.95
2022-12-26T20:53:30.135Z,5.67
2022-12-26T20:58:36.201Z,5.85
2022-12-26T21:03:40.538Z,5.75
2022-12-26T21:08:46.279Z,5.53
2022-12-26T21:13:52.892Z,5.49
2022-12-26T21:18:57.196Z,5.58
2022-12-26T21:24:02.351Z,5.44
2022-12-26T21:29:10.438Z,5.18
2022-12-26T21:34:17.405Z,5.38
2022-12-26T21:39:21.142Z,5.64
2022-12-26T21:44:26.668Z,5.50
2022-12-26T21:49:30.930Z,5.75
2022-12-26T21:54:52.698Z,5.28
2022-12-26T21:59:58.595Z,4.98
2022-12-26T22:05:03.099Z,5.40
2022-12-26T22:10:07.950Z,5.10
2022-12-26T22:15:27.118Z,5.13
2022-12-26T22:20:30.819Z,5.24
2022-12-26T22:25:34.499Z,4.81
2022-12-26T22:30:39.437Z,4.65
2022-12-26T22:35:42.931Z,4.43
2022-12-26T22:40:55.163Z,4.31
2022-12-26T22:46:00.384Z,4.40
2022-12-26T22:51:04.421Z,4.33
2022-12-26T22:56:08.626Z,4.53
2022-12-26T23:01:15.593Z,4.50
2022-12-26T23:06:21.436Z,3.96
2022-12-26T23:11:33.987Z,3.88
2022-12-26T23:16:44.004Z,3.87
2022-12-26T23:21:50.622Z,3.87
2022-12-26T23:26:55.973Z,3.84
2022-12-26T23:32:02.224Z,3.68
2022-12-26T23:37:07.375Z,3.31
2022-12-26T23:42:10.893Z,3.22
2022-12-26T23:47:15.924Z,2.88
2022-12-26T23:52:19.526Z,2.77
2022-12-26T23:57:23.174Z,2.58
